sensor_id;sensor_type;location;lat;lon;timestamp;temperature;humidity
15959;DHT22;8078;47.822;9.402;2022-09-09T00:01:23;14.20;99.90
15959;DHT22;8078;47.822;9.402;2022-09-09T00:06:56;14.20;99.90
15959;DHT22;8078;47.822;9.402;2022-09-09T00:09:26;14.10;99.90
15959;DHT22;8078;47.822;9.402;2022-09-09T00:12:12;14.20;99.90
15959;DHT22;8078;47.822;9.402;2022-09-09T00:14:50;14.10;99.90
15959;DHT22;8078;47.822;9.402;2022-09-09T00:20:00;14.30;99.90
15959;DHT22;8078;47.822;9.402;2022-09-09T00:22:29;14.40;99.90
15959;DHT22;8078;47.822;9.402;2022-09-09T00:27:45;14.30;99.90
15959;DHT22;8078;47.822;9.402;2022-09-09T00:30:19;14.30;99.90
15959;DHT22;8078;47.822;9.402;2022-09-09T00:32:48;14.20;99.90
15959;DHT22;8078;47.822;9.402;2022-09-09T00:35:25;14.00;99.90
15959;DHT22;8078;47.822;9.402;2022-09-09T00:37:55;13.90;99.90
15959;DHT22;8078;47.822;9.402;2022-09-09T00:43:30;14.10;99.90
15959;DHT22;8078;47.822;9.402;2022-09-09T00:54:48;13.70;99.90
15959;DHT22;8078;47.822;9.402;2022-09-09T00:57:29;13.60;99.90
15959;DHT22;8078;47.822;9.402;2022-09-09T01:00:21;13.60;99.90
15959;DHT22;8078;47.822;9.402;2022-09-09T01:08:39;13.50;99.90
15959;DHT22;8078;47.822;9.402;2022-09-09T01:11:00;13.40;99.90
15959;DHT22;8078;47.822;9.402;2022-09-09T01:13:30;13.50;99.90
15959;DHT22;8078;47.822;9.402;2022-09-09T01:16:01;13.50;99.90
15959;DHT22;8078;47.822;9.402;2022-09-09T01:18:37;13.50;99.90
15959;DHT22;8078;47.822;9.402;2022-09-09T01:26:38;13.40;99.90
15959;DHT22;8078;47.822;9.402;2022-09-09T01:29:08;13.40;99.90
15959;DHT22;8078;47.822;9.402;2022-09-09T01:31:39;13.40;99.90
15959;DHT22;8078;47.822;9.402;2022-09-09T01:34:15;13.50;99.90
15959;DHT22;8078;47.822;9.402;2022-09-09T01:39:16;13.40;99.90
15959;DHT22;8078;47.822;9.402;2022-09-09T01:41:42;13.50;99.90
15959;DHT22;8078;47.822;9.402;2022-09-09T01:44:08;13.40;99.90
15959;DHT22;8078;47.822;9.402;2022-09-09T01:46:34;13.40;99.90
15959;DHT22;8078;47.822;9.402;2022-09-09T01:49:02;13.40;99.90
15959;DHT22;8078;47.822;9.402;2022-09-09T01:51:29;13.40;99.90
15959;DHT22;8078;47.822;9.402;2022-09-09T01:53:55;13.30;99.90
15959;DHT22;8078;47.822;9.402;2022-09-09T01:59:40;13.30;99.90
15959;DHT22;8078;47.822;9.402;2022-09-09T02:04:42;13.20;99.90
15959;DHT22;8078;47.822;9.402;2022-09-09T02:07:37;13.40;99.90
15959;DHT22;8078;47.822;9.402;2022-09-09T02:10:25;13.50;99.90
15959;DHT22;8078;47.822;9.402;2022-09-09T02:13:17;13.60;99.90
15959;DHT22;8078;47.822;9.402;2022-09-09T02:16:31;13.60;99.90
15959;DHT22;8078;47.822;9.402;2022-09-09T02:18:55;13.60;99.90
15959;DHT22;8078;47.822;9.402;2022-09-09T02:21:23;13.80;99.90
15959;DHT22;8078;47.822;9.402;2022-09-09T02:23:50;14.00;99.90
15959;DHT22;8078;47.822;9.402;2022-09-09T02:26:19;14.10;99.90
15959;DHT22;8078;47.822;9.402;2022-09-09T02:28:51;14.20;99.90
15959;DHT22;8078;47.822;9.402;2022-09-09T02:31:20;14.20;99.90
15959;DHT22;8078;47.822;9.402;2022-09-09T02:34:07;14.40;99.90
15959;DHT22;8078;47.822;9.402;2022-09-09T02:36:37;14.40;99.90
15959;DHT22;8078;47.822;9.402;2022-09-09T02:39:05;14.50;99.90
15959;DHT22;8078;47.822;9.402;2022-09-09T02:41:34;14.50;99.90
15959;DHT22;8078;47.822;9.402;2022-09-09T02:44:01;14.50;99.90
15959;DHT22;8078;47.822;9.402;2022-09-09T02:52:07;14.40;99.90
15959;DHT22;8078;47.822;9.402;2022-09-09T02:54:35;14.30;99.90
15959;DHT22;8078;47.822;9.402;2022-09-09T02:59:31;14.20;99.90
15959;DHT22;8078;47.822;9.402;2022-09-09T03:01:57;14.20;99.90
15959;DHT22;8078;47.822;9.402;2022-09-09T03:04:22;14.10;99.90
15959;DHT22;8078;47.822;9.402;2022-09-09T03:06:50;14.00;99.90
15959;DHT22;8078;47.822;9.402;2022-09-09T03:09:15;14.00;99.90
15959;DHT22;8078;47.822;9.402;2022-09-09T03:11:41;14.00;99.90
15959;DHT22;8078;47.822;9.402;2022-09-09T03:14:06;13.90;99.90
15959;DHT22;8078;47.822;9.402;2022-09-09T03:16:32;13.90;99.90
15959;DHT22;8078;47.822;9.402;2022-09-09T03:19:00;14.00;99.90
15959;DHT22;8078;47.822;9.402;2022-09-09T03:21:26;14.10;99.90
15959;DHT22;8078;47.822;9.402;2022-09-09T03:23:51;14.10;99.90
15959;DHT22;8078;47.822;9.402;2022-09-09T03:26:17;14.10;99.90
15959;DHT22;8078;47.822;9.402;2022-09-09T03:28:42;14.00;99.90
15959;DHT22;8078;47.822;9.402;2022-09-09T03:31:10;14.00;99.90
15959;DHT22;8078;47.822;9.402;2022-09-09T03:33:39;14.00;99.90
15959;DHT22;8078;47.822;9.402;2022-09-09T03:36:06;14.00;99.90
15959;DHT22;8078;47.822;9.402;2022-09-09T03:38:34;13.90;99.90
15959;DHT22;8078;47.822;9.402;2022-09-09T03:41:00;13.90;99.90
15959;DHT22;8078;47.822;9.402;2022-09-09T03:43:27;13.90;99.90
15959;DHT22;8078;47.822;9.402;2022-09-09T03:45:53;13.90;99.90
15959;DHT22;8078;47.822;9.402;2022-09-09T03:48:22;13.90;99.90
15959;DHT22;8078;47.822;9.402;2022-09-09T03:50:52;13.80;99.90
15959;DHT22;8078;47.822;9.402;2022-09-09T03:53:20;13.80;99.90
15959;DHT22;8078;47.822;9.402;2022-09-09T03:55:47;13.70;99.90
15959;DHT22;8078;47.822;9.402;2022-09-09T03:58:14;13.70;99.90
15959;DHT22;8078;47.822;9.402;2022-09-09T04:00:40;13.70;99.90
15959;DHT22;8078;47.822;9.402;2022-09-09T04:03:09;13.70;99.90
15959;DHT22;8078;47.822;9.402;2022-09-09T04:05:35;13.70;99.90
15959;DHT22;8078;47.822;9.402;2022-09-09T04:08:05;13.60;99.90
15959;DHT22;8078;47.822;9.402;2022-09-09T04:10:31;13.60;99.90
15959;DHT22;8078;47.822;9.402;2022-09-09T04:12:56;13.60;99.90
15959;DHT22;8078;47.822;9.402;2022-09-09T04:15:22;13.60;99.90
15959;DHT22;8078;47.822;9.402;2022-09-09T04:17:48;13.50;99.90
15959;DHT22;8078;47.822;9.402;2022-09-09T04:20:13;13.40;99.90
15959;DHT22;8078;47.822;9.402;2022-09-09T04:22:39;13.40;99.90
15959;DHT22;8078;47.822;9.402;2022-09-09T04:25:05;13.40;99.90
15959;DHT22;8078;47.822;9.402;2022-09-09T04:27:31;13.30;99.90
15959;DHT22;8078;47.822;9.402;2022-09-09T04:29:57;13.30;99.90
15959;DHT22;8078;47.822;9.402;2022-09-09T04:32:23;13.30;99.90
15959;DHT22;8078;47.822;9.402;2022-09-09T04:34:48;13.30;99.90
15959;DHT22;8078;47.822;9.402;2022-09-09T04:37:14;13.20;99.90
15959;DHT22;8078;47.822;9.402;2022-09-09T04:39:40;13.20;99.90
15959;DHT22;8078;47.822;9.402;2022-09-09T04:42:05;13.20;99.90
15959;DHT22;8078;47.822;9.402;2022-09-09T04:44:31;13.10;99.90
15959;DHT22;8078;47.822;9.402;2022-09-09T04:46:56;13.10;99.90
15959;DHT22;8078;47.822;9.402;2022-09-09T04:49:23;13.00;99.90
15959;DHT22;8078;47.822;9.402;2022-09-09T04:51:49;12.90;99.90
15959;DHT22;8078;47.822;9.402;2022-09-09T04:54:15;12.80;99.90
15959;DHT22;8078;47.822;9.402;2022-09-09T04:56:40;12.80;99.90
15959;DHT22;8078;47.822;9.402;2022-09-09T04:59:07;12.70;99.90
15959;DHT22;8078;47.822;9.402;2022-09-09T05:01:33;12.70;99.90
15959;DHT22;8078;47.822;9.402;2022-09-09T05:03:58;12.60;99.90
15959;DHT22;8078;47.822;9.402;2022-09-09T05:06:24;12.60;99.90
15959;DHT22;8078;47.822;9.402;2022-09-09T05:08:50;12.50;99.90
15959;DHT22;8078;47.822;9.402;2022-09-09T05:11:22;12.50;99.90
15959;DHT22;8078;47.822;9.402;2022-09-09T05:13:50;12.50;99.90
15959;DHT22;8078;47.822;9.402;2022-09-09T05:16:16;12.40;99.90
15959;DHT22;8078;47.822;9.402;2022-09-09T05:18:42;12.40;99.90
15959;DHT22;8078;47.822;9.402;2022-09-09T05:21:09;12.40;99.90
15959;DHT22;8078;47.822;9.402;2022-09-09T05:23:35;12.30;99.90
15959;DHT22;8078;47.822;9.402;2022-09-09T05:26:01;12.30;99.90
15959;DHT22;8078;47.822;9.402;2022-09-09T05:28:27;12.30;99.90
15959;DHT22;8078;47.822;9.402;2022-09-09T05:31:00;12.30;99.90
15959;DHT22;8078;47.822;9.402;2022-09-09T05:33:29;12.30;99.90
15959;DHT22;8078;47.822;9.402;2022-09-09T05:35:59;12.30;99.90
15959;DHT22;8078;47.822;9.402;2022-09-09T05:38:25;12.30;99.90
15959;DHT22;8078;47.822;9.402;2022-09-09T05:40:51;12.30;99.90
15959;DHT22;8078;47.822;9.402;2022-09-09T05:43:18;12.30;99.90
15959;DHT22;8078;47.822;9.402;2022-09-09T05:45:46;12.30;99.90
15959;DHT22;8078;47.822;9.402;2022-09-09T05:48:13;12.40;99.90
15959;DHT22;8078;47.822;9.402;2022-09-09T05:50:40;12.30;99.90
15959;DHT22;8078;47.822;9.402;2022-09-09T05:53:06;12.30;99.90
15959;DHT22;8078;47.822;9.402;2022-09-09T05:55:31;12.30;99.90
15959;DHT22;8078;47.822;9.402;2022-09-09T05:57:57;12.30;99.90
15959;DHT22;8078;47.822;9.402;2022-09-09T06:00:23;12.30;99.90
15959;DHT22;8078;47.822;9.402;2022-09-09T06:02:52;12.30;99.90
15959;DHT22;8078;47.822;9.402;2022-09-09T06:05:18;12.40;99.90
15959;DHT22;8078;47.822;9.402;2022-09-09T06:07:44;12.40;99.90
15959;DHT22;8078;47.822;9.402;2022-09-09T06:10:10;12.40;99.90
15959;DHT22;8078;47.822;9.402;2022-09-09T06:12:39;12.30;99.90
15959;DHT22;8078;47.822;9.402;2022-09-09T06:15:05;12.30;99.90
15959;DHT22;8078;47.822;9.402;2022-09-09T06:17:30;12.30;99.90
15959;DHT22;8078;47.822;9.402;2022-09-09T06:19:56;12.30;99.90
15959;DHT22;8078;47.822;9.402;2022-09-09T06:22:22;12.40;99.90
15959;DHT22;8078;47.822;9.402;2022-09-09T06:24:47;12.40;99.90
15959;DHT22;8078;47.822;9.402;2022-09-09T06:27:13;12.40;99.90
15959;DHT22;8078;47.822;9.402;2022-09-09T06:29:39;12.40;99.90
15959;DHT22;8078;47.822;9.402;2022-09-09T06:32:04;12.40;99.90
15959;DHT22;8078;47.822;9.402;2022-09-09T06:34:30;12.30;99.90
15959;DHT22;8078;47.822;9.402;2022-09-09T06:36:56;12.30;99.90
15959;DHT22;8078;47.822;9.402;2022-09-09T06:39:23;12.40;99.90
15959;DHT22;8078;47.822;9.402;2022-09-09T06:41:48;12.30;99.90
15959;DHT22;8078;47.822;9.402;2022-09-09T06:44:15;12.20;99.90
15959;DHT22;8078;47.822;9.402;2022-09-09T06:46:40;12.30;99.90
15959;DHT22;8078;47.822;9.402;2022-09-09T06:49:07;12.30;99.90
15959;DHT22;8078;47.822;9.402;2022-09-09T06:51:35;12.30;99.90
15959;DHT22;8078;47.822;9.402;2022-09-09T06:54:02;12.30;99.90
15959;DHT22;8078;47.822;9.402;2022-09-09T06:56:33;12.30;99.90
15959;DHT22;8078;47.822;9.402;2022-09-09T06:59:01;12.30;99.90
15959;DHT22;8078;47.822;9.402;2022-09-09T07:01:32;12.40;99.90
15959;DHT22;8078;47.822;9.402;2022-09-09T07:03:59;12.40;99.90
15959;DHT22;8078;47.822;9.402;2022-09-09T07:06:27;12.40;99.90
15959;DHT22;8078;47.822;9.402;2022-09-09T07:08:54;12.50;99.90
15959;DHT22;8078;47.822;9.402;2022-09-09T07:11:22;12.60;99.90
15959;DHT22;8078;47.822;9.402;2022-09-09T07:13:48;12.60;99.90
15959;DHT22;8078;47.822;9.402;2022-09-09T07:16:19;12.70;99.90
15959;DHT22;8078;47.822;9.402;2022-09-09T07:18:45;12.80;99.90
15959;DHT22;8078;47.822;9.402;2022-09-09T07:21:13;12.90;99.90
15959;DHT22;8078;47.822;9.402;2022-09-09T07:23:39;13.00;99.90
15959;DHT22;8078;47.822;9.402;2022-09-09T07:26:13;13.00;99.90
15959;DHT22;8078;47.822;9.402;2022-09-09T07:28:40;13.10;99.90
15959;DHT22;8078;47.822;9.402;2022-09-09T07:31:08;13.10;99.90
15959;DHT22;8078;47.822;9.402;2022-09-09T07:33:39;13.00;99.90
15959;DHT22;8078;47.822;9.402;2022-09-09T07:36:10;13.10;99.90
15959;DHT22;8078;47.822;9.402;2022-09-09T07:38:39;13.00;99.90
15959;DHT22;8078;47.822;9.402;2022-09-09T07:41:07;13.10;99.90
15959;DHT22;8078;47.822;9.402;2022-09-09T07:43:38;13.10;99.90
15959;DHT22;8078;47.822;9.402;2022-09-09T07:46:04;13.20;99.90
15959;DHT22;8078;47.822;9.402;2022-09-09T07:48:30;13.30;99.90
15959;DHT22;8078;47.822;9.402;2022-09-09T07:51:06;13.30;99.90
15959;DHT22;8078;47.822;9.402;2022-09-09T07:53:31;13.30;99.90
15959;DHT22;8078;47.822;9.402;2022-09-09T07:56:03;13.40;99.90
15959;DHT22;8078;47.822;9.402;2022-09-09T07:58:29;13.40;99.90
15959;DHT22;8078;47.822;9.402;2022-09-09T08:00:55;13.40;99.90
15959;DHT22;8078;47.822;9.402;2022-09-09T08:03:20;13.40;99.90
15959;DHT22;8078;47.822;9.402;2022-09-09T08:05:47;13.40;99.90
15959;DHT22;8078;47.822;9.402;2022-09-09T08:08:12;13.50;99.90
15959;DHT22;8078;47.822;9.402;2022-09-09T08:10:38;13.60;99.90
15959;DHT22;8078;47.822;9.402;2022-09-09T08:13:03;13.60;99.90
15959;DHT22;8078;47.822;9.402;2022-09-09T08:15:30;13.70;99.90
15959;DHT22;8078;47.822;9.402;2022-09-09T08:17:56;13.80;99.90
15959;DHT22;8078;47.822;9.402;2022-09-09T08:20:21;13.80;99.90
15959;DHT22;8078;47.822;9.402;2022-09-09T08:22:48;13.80;99.90
15959;DHT22;8078;47.822;9.402;2022-09-09T08:25:15;14.10;99.90
15959;DHT22;8078;47.822;9.402;2022-09-09T08:27:40;14.10;99.90
15959;DHT22;8078;47.822;9.402;2022-09-09T08:30:07;14.40;99.90
15959;DHT22;8078;47.822;9.402;2022-09-09T08:32:32;14.40;99.90
15959;DHT22;8078;47.822;9.402;2022-09-09T08:34:58;14.40;99.90
15959;DHT22;8078;47.822;9.402;2022-09-09T08:37:23;14.40;99.90
15959;DHT22;8078;47.822;9.402;2022-09-09T08:39:49;14.40;99.90
15959;DHT22;8078;47.822;9.402;2022-09-09T08:42:38;14.50;99.90
15959;DHT22;8078;47.822;9.402;2022-09-09T08:45:49;14.50;99.90
15959;DHT22;8078;47.822;9.402;2022-09-09T08:48:09;14.50;99.90
15959;DHT22;8078;47.822;9.402;2022-09-09T08:50:38;14.60;99.90
15959;DHT22;8078;47.822;9.402;2022-09-09T08:53:14;14.70;99.90
15959;DHT22;8078;47.822;9.402;2022-09-09T08:55:51;14.60;99.90
15959;DHT22;8078;47.822;9.402;2022-09-09T08:58:25;14.70;99.90
15959;DHT22;8078;47.822;9.402;2022-09-09T09:03:54;15.00;99.90
15959;DHT22;8078;47.822;9.402;2022-09-09T09:09:11;15.20;99.90
15959;DHT22;8078;47.822;9.402;2022-09-09T09:11:53;15.30;99.90
15959;DHT22;8078;47.822;9.402;2022-09-09T09:14:24;15.40;99.90
15959;DHT22;8078;47.822;9.402;2022-09-09T09:19:18;16.00;99.90
15959;DHT22;8078;47.822;9.402;2022-09-09T09:32:41;15.30;99.90
15959;DHT22;8078;47.822;9.402;2022-09-09T09:35:12;15.50;99.90
15959;DHT22;8078;47.822;9.402;2022-09-09T09:37:40;15.30;99.90
15959;DHT22;8078;47.822;9.402;2022-09-09T09:40:14;15.00;99.90
15959;DHT22;8078;47.822;9.402;2022-09-09T09:42:59;15.00;99.90
15959;DHT22;8078;47.822;9.402;2022-09-09T09:45:42;14.90;99.90
15959;DHT22;8078;47.822;9.402;2022-09-09T09:48:11;14.70;99.90
15959;DHT22;8078;47.822;9.402;2022-09-09T09:50:48;14.70;99.90
15959;DHT22;8078;47.822;9.402;2022-09-09T09:56:00;14.70;99.90
15959;DHT22;8078;47.822;9.402;2022-09-09T09:58:30;14.60;99.90
15959;DHT22;8078;47.822;9.402;2022-09-09T10:00:57;14.90;99.90
15959;DHT22;8078;47.822;9.402;2022-09-09T10:03:26;15.40;99.90
15959;DHT22;8078;47.822;9.402;2022-09-09T10:05:53;15.40;99.90
15959;DHT22;8078;47.822;9.402;2022-09-09T10:08:19;15.50;99.90
15959;DHT22;8078;47.822;9.402;2022-09-09T10:14:14;16.00;99.90
15959;DHT22;8078;47.822;9.402;2022-09-09T10:17:01;16.00;99.90
15959;DHT22;8078;47.822;9.402;2022-09-09T10:19:32;16.10;99.90
15959;DHT22;8078;47.822;9.402;2022-09-09T10:22:11;16.40;99.90
15959;DHT22;8078;47.822;9.402;2022-09-09T10:27:40;16.30;99.90
15959;DHT22;8078;47.822;9.402;2022-09-09T10:30:17;16.00;99.90
15959;DHT22;8078;47.822;9.402;2022-09-09T10:32:49;16.20;99.90
15959;DHT22;8078;47.822;9.402;2022-09-09T10:35:39;16.50;99.90
15959;DHT22;8078;47.822;9.402;2022-09-09T10:50:03;15.30;99.90
15959;DHT22;8078;47.822;9.402;2022-09-09T10:55:26;15.90;99.90
15959;DHT22;8078;47.822;9.402;2022-09-09T10:57:58;15.60;99.90
15959;DHT22;8078;47.822;9.402;2022-09-09T11:03:03;16.20;99.90
15959;DHT22;8078;47.822;9.402;2022-09-09T11:05:41;16.50;99.90
15959;DHT22;8078;47.822;9.402;2022-09-09T11:08:14;17.00;99.90
15959;DHT22;8078;47.822;9.402;2022-09-09T11:13:14;17.40;99.90
15959;DHT22;8078;47.822;9.402;2022-09-09T11:15:51;17.10;99.90
15959;DHT22;8078;47.822;9.402;2022-09-09T11:18:22;17.20;99.90
15959;DHT22;8078;47.822;9.402;2022-09-09T11:20:51;16.90;99.90
15959;DHT22;8078;47.822;9.402;2022-09-09T11:26:30;16.30;99.90
15959;DHT22;8078;47.822;9.402;2022-09-09T11:40:24;16.40;99.90
15959;DHT22;8078;47.822;9.402;2022-09-09T11:46:02;16.00;99.90
15959;DHT22;8078;47.822;9.402;2022-09-09T11:48:34;15.90;99.90
15959;DHT22;8078;47.822;9.402;2022-09-09T11:51:08;16.30;99.90
15959;DHT22;8078;47.822;9.402;2022-09-09T11:53:35;16.50;99.90
15959;DHT22;8078;47.822;9.402;2022-09-09T11:56:13;16.70;99.90
15959;DHT22;8078;47.822;9.402;2022-09-09T11:58:57;17.00;99.90
15959;DHT22;8078;47.822;9.402;2022-09-09T12:01:36;17.00;99.90
15959;DHT22;8078;47.822;9.402;2022-09-09T12:07:26;17.40;99.90
15959;DHT22;8078;47.822;9.402;2022-09-09T12:09:55;17.50;99.90
15959;DHT22;8078;47.822;9.402;2022-09-09T12:12:33;17.60;99.90
15959;DHT22;8078;47.822;9.402;2022-09-09T12:17:46;17.50;99.90
15959;DHT22;8078;47.822;9.402;2022-09-09T12:28:04;17.50;99.90
15959;DHT22;8078;47.822;9.402;2022-09-09T12:30:37;17.00;99.90
15959;DHT22;8078;47.822;9.402;2022-09-09T12:33:11;16.80;99.90
15959;DHT22;8078;47.822;9.402;2022-09-09T12:35:38;17.50;99.90
15959;DHT22;8078;47.822;9.402;2022-09-09T12:38:06;17.30;99.90
15959;DHT22;8078;47.822;9.402;2022-09-09T12:40:36;17.30;99.90
15959;DHT22;8078;47.822;9.402;2022-09-09T12:43:20;17.50;99.90
15959;DHT22;8078;47.822;9.402;2022-09-09T12:45:47;17.90;99.90
15959;DHT22;8078;47.822;9.402;2022-09-09T12:48:18;17.70;99.90
15959;DHT22;8078;47.822;9.402;2022-09-09T12:50:50;17.50;99.90
15959;DHT22;8078;47.822;9.402;2022-09-09T12:53:30;17.90;99.90
15959;DHT22;8078;47.822;9.402;2022-09-09T12:55:59;17.70;99.90
15959;DHT22;8078;47.822;9.402;2022-09-09T12:58:26;17.40;99.90
15959;DHT22;8078;47.822;9.402;2022-09-09T13:00:55;17.50;99.90
15959;DHT22;8078;47.822;9.402;2022-09-09T13:03:22;17.30;99.90
15959;DHT22;8078;47.822;9.402;2022-09-09T13:05:49;17.40;99.90
15959;DHT22;8078;47.822;9.402;2022-09-09T13:08:16;17.80;99.90
15959;DHT22;8078;47.822;9.402;2022-09-09T13:11:01;18.30;99.90
15959;DHT22;8078;47.822;9.402;2022-09-09T13:15:57;17.60;99.90
15959;DHT22;8078;47.822;9.402;2022-09-09T13:18:27;17.60;99.90
15959;DHT22;8078;47.822;9.402;2022-09-09T13:20:54;17.80;99.90
15959;DHT22;8078;47.822;9.402;2022-09-09T13:23:21;17.70;99.90
15959;DHT22;8078;47.822;9.402;2022-09-09T13:25:59;17.70;99.90
15959;DHT22;8078;47.822;9.402;2022-09-09T13:28:27;17.80;99.90
15959;DHT22;8078;47.822;9.402;2022-09-09T13:31:04;17.60;99.90
15959;DHT22;8078;47.822;9.402;2022-09-09T13:33:33;17.60;99.90
15959;DHT22;8078;47.822;9.402;2022-09-09T13:36:02;18.10;99.90
15959;DHT22;8078;47.822;9.402;2022-09-09T13:38:33;18.20;99.90
15959;DHT22;8078;47.822;9.402;2022-09-09T13:41:07;18.20;99.90
15959;DHT22;8078;47.822;9.402;2022-09-09T13:43:44;17.90;99.90
15959;DHT22;8078;47.822;9.402;2022-09-09T13:46:41;17.80;99.90
15959;DHT22;8078;47.822;9.402;2022-09-09T13:51:35;18.30;99.90
15959;DHT22;8078;47.822;9.402;2022-09-09T13:54:05;18.00;99.90
15959;DHT22;8078;47.822;9.402;2022-09-09T13:56:33;18.20;99.90
15959;DHT22;8078;47.822;9.402;2022-09-09T13:58:58;18.80;99.90
15959;DHT22;8078;47.822;9.402;2022-09-09T14:01:24;18.70;99.90
15959;DHT22;8078;47.822;9.402;2022-09-09T14:03:50;18.60;99.90
15959;DHT22;8078;47.822;9.402;2022-09-09T14:06:16;18.70;99.90
15959;DHT22;8078;47.822;9.402;2022-09-09T14:08:44;18.10;99.90
15959;DHT22;8078;47.822;9.402;2022-09-09T14:11:12;18.50;99.90
15959;DHT22;8078;47.822;9.402;2022-09-09T14:13:38;18.20;99.90
15959;DHT22;8078;47.822;9.402;2022-09-09T14:16:03;18.10;99.90
15959;DHT22;8078;47.822;9.402;2022-09-09T14:18:29;18.10;99.90
15959;DHT22;8078;47.822;9.402;2022-09-09T14:22:04;18.30;99.90
15959;DHT22;8078;47.822;9.402;2022-09-09T14:24:29;18.10;99.90
15959;DHT22;8078;47.822;9.402;2022-09-09T14:26:55;18.30;99.90
15959;DHT22;8078;47.822;9.402;2022-09-09T14:29:21;18.30;99.90
15959;DHT22;8078;47.822;9.402;2022-09-09T14:31:46;18.70;99.90
15959;DHT22;8078;47.822;9.402;2022-09-09T14:34:12;18.60;99.90
15959;DHT22;8078;47.822;9.402;2022-09-09T14:36:39;18.80;99.90
15959;DHT22;8078;47.822;9.402;2022-09-09T14:39:07;18.90;99.90
15959;DHT22;8078;47.822;9.402;2022-09-09T14:41:32;18.80;99.90
15959;DHT22;8078;47.822;9.402;2022-09-09T14:43:58;18.90;99.90
15959;DHT22;8078;47.822;9.402;2022-09-09T14:46:25;19.20;99.90
15959;DHT22;8078;47.822;9.402;2022-09-09T14:48:51;19.10;99.90
15959;DHT22;8078;47.822;9.402;2022-09-09T14:51:20;18.80;99.90
15959;DHT22;8078;47.822;9.402;2022-09-09T14:53:47;18.40;99.90
15959;DHT22;8078;47.822;9.402;2022-09-09T14:56:16;19.00;99.90
15959;DHT22;8078;47.822;9.402;2022-09-09T14:58:42;19.30;99.90
15959;DHT22;8078;47.822;9.402;2022-09-09T15:01:10;19.40;99.90
15959;DHT22;8078;47.822;9.402;2022-09-09T15:03:36;19.00;99.90
15959;DHT22;8078;47.822;9.402;2022-09-09T15:06:13;19.50;99.90
15959;DHT22;8078;47.822;9.402;2022-09-09T15:08:41;19.80;99.90
15959;DHT22;8078;47.822;9.402;2022-09-09T15:11:07;19.50;99.90
15959;DHT22;8078;47.822;9.402;2022-09-09T15:13:36;19.40;99.90
15959;DHT22;8078;47.822;9.402;2022-09-09T15:16:16;19.50;99.90
15959;DHT22;8078;47.822;9.402;2022-09-09T15:18:43;18.60;99.90
15959;DHT22;8078;47.822;9.402;2022-09-09T15:21:15;17.80;99.90
15959;DHT22;8078;47.822;9.402;2022-09-09T15:23:42;17.30;99.90
15959;DHT22;8078;47.822;9.402;2022-09-09T15:26:08;17.30;99.90
15959;DHT22;8078;47.822;9.402;2022-09-09T15:28:36;17.30;99.90
15959;DHT22;8078;47.822;9.402;2022-09-09T15:31:09;17.40;99.90
15959;DHT22;8078;47.822;9.402;2022-09-09T15:33:36;17.20;99.90
15959;DHT22;8078;47.822;9.402;2022-09-09T15:36:23;17.00;99.90
15959;DHT22;8078;47.822;9.402;2022-09-09T15:38:50;16.80;99.90
15959;DHT22;8078;47.822;9.402;2022-09-09T15:41:16;17.00;99.90
15959;DHT22;8078;47.822;9.402;2022-09-09T15:43:46;18.00;99.90
15959;DHT22;8078;47.822;9.402;2022-09-09T15:46:25;19.00;99.90
15959;DHT22;8078;47.822;9.402;2022-09-09T15:48:54;19.80;99.90
15959;DHT22;8078;47.822;9.402;2022-09-09T15:51:21;19.30;99.90
15959;DHT22;8078;47.822;9.402;2022-09-09T15:53:47;19.20;99.90
15959;DHT22;8078;47.822;9.402;2022-09-09T15:56:13;18.60;99.90
15959;DHT22;8078;47.822;9.402;2022-09-09T15:58:39;19.00;99.90
15959;DHT22;8078;47.822;9.402;2022-09-09T16:01:06;18.50;99.90
15959;DHT22;8078;47.822;9.402;2022-09-09T16:03:36;17.60;99.90
15959;DHT22;8078;47.822;9.402;2022-09-09T16:06:03;17.10;99.90
15959;DHT22;8078;47.822;9.402;2022-09-09T16:08:34;17.00;99.90
15959;DHT22;8078;47.822;9.402;2022-09-09T16:11:12;17.00;99.90
15959;DHT22;8078;47.822;9.402;2022-09-09T16:13:40;16.70;99.90
15959;DHT22;8078;47.822;9.402;2022-09-09T16:16:07;16.50;99.90
15959;DHT22;8078;47.822;9.402;2022-09-09T16:18:44;16.40;99.90
15959;DHT22;8078;47.822;9.402;2022-09-09T16:21:16;16.70;99.90
15959;DHT22;8078;47.822;9.402;2022-09-09T16:23:42;16.90;99.90
15959;DHT22;8078;47.822;9.402;2022-09-09T16:26:11;16.70;99.90
15959;DHT22;8078;47.822;9.402;2022-09-09T16:28:38;16.80;99.90
15959;DHT22;8078;47.822;9.402;2022-09-09T16:31:09;17.50;99.90
15959;DHT22;8078;47.822;9.402;2022-09-09T16:33:36;17.80;99.90
15959;DHT22;8078;47.822;9.402;2022-09-09T16:36:09;18.30;99.90
15959;DHT22;8078;47.822;9.402;2022-09-09T16:38:36;18.60;99.90
15959;DHT22;8078;47.822;9.402;2022-09-09T16:41:04;18.40;99.90
15959;DHT22;8078;47.822;9.402;2022-09-09T16:43:34;18.40;99.90
15959;DHT22;8078;47.822;9.402;2022-09-09T16:46:01;18.40;99.90
15959;DHT22;8078;47.822;9.402;2022-09-09T16:48:30;18.20;99.90
15959;DHT22;8078;47.822;9.402;2022-09-09T16:51:09;18.00;99.90
15959;DHT22;8078;47.822;9.402;2022-09-09T16:53:36;17.60;99.90
15959;DHT22;8078;47.822;9.402;2022-09-09T16:56:06;17.20;99.90
15959;DHT22;8078;47.822;9.402;2022-09-09T16:58:32;17.00;99.90
15959;DHT22;8078;47.822;9.402;2022-09-09T17:00:58;16.80;99.90
15959;DHT22;8078;47.822;9.402;2022-09-09T17:03:24;16.60;99.90
15959;DHT22;8078;47.822;9.402;2022-09-09T17:05:50;16.40;99.90
15959;DHT22;8078;47.822;9.402;2022-09-09T17:08:16;16.20;99.90
15959;DHT22;8078;47.822;9.402;2022-09-09T17:10:41;16.00;99.90
15959;DHT22;8078;47.822;9.402;2022-09-09T17:13:07;15.90;99.90
15959;DHT22;8078;47.822;9.402;2022-09-09T17:15:33;15.80;99.90
15959;DHT22;8078;47.822;9.402;2022-09-09T17:18:03;15.70;99.90
15959;DHT22;8078;47.822;9.402;2022-09-09T17:20:29;15.60;99.90
15959;DHT22;8078;47.822;9.402;2022-09-09T17:22:54;15.60;99.90
15959;DHT22;8078;47.822;9.402;2022-09-09T17:25:20;15.50;99.90
15959;DHT22;8078;47.822;9.402;2022-09-09T17:27:47;15.50;99.90
15959;DHT22;8078;47.822;9.402;2022-09-09T17:30:13;15.40;99.90
15959;DHT22;8078;47.822;9.402;2022-09-09T17:32:38;15.40;99.90
15959;DHT22;8078;47.822;9.402;2022-09-09T17:35:04;15.40;99.90
15959;DHT22;8078;47.822;9.402;2022-09-09T17:37:31;15.30;99.90
15959;DHT22;8078;47.822;9.402;2022-09-09T17:39:56;15.30;99.90
15959;DHT22;8078;47.822;9.402;2022-09-09T17:42:23;15.30;99.90
15959;DHT22;8078;47.822;9.402;2022-09-09T17:44:48;15.20;99.90
15959;DHT22;8078;47.822;9.402;2022-09-09T17:47:14;15.30;99.90
15959;DHT22;8078;47.822;9.402;2022-09-09T17:49:39;15.20;99.90
15959;DHT22;8078;47.822;9.402;2022-09-09T17:52:05;15.20;99.90
15959;DHT22;8078;47.822;9.402;2022-09-09T17:54:31;15.20;99.90
15959;DHT22;8078;47.822;9.402;2022-09-09T17:56:57;15.20;99.90
15959;DHT22;8078;47.822;9.402;2022-09-09T17:59:24;15.30;99.90
15959;DHT22;8078;47.822;9.402;2022-09-09T18:01:50;15.30;99.90
15959;DHT22;8078;47.822;9.402;2022-09-09T18:04:18;15.30;99.90
15959;DHT22;8078;47.822;9.402;2022-09-09T18:06:46;15.30;99.90
15959;DHT22;8078;47.822;9.402;2022-09-09T18:09:15;15.20;99.90
15959;DHT22;8078;47.822;9.402;2022-09-09T18:11:46;15.20;99.90